TAM1425 SBSL-SBBR
Flight info
| Callsign | TAM1425 |
|---|---|
| Flight time | 2h 13m |
| Altitude | 36000 |
| Route | ISKAB UZ2 UTNUX |
| Aircraft | A21N/M-SDE3FGHIRWY/LB1 |
Departure
| Time | 2026-04-21 02:47 |
|---|---|
| Airport | Marechal Cunha Machado International Airport (SBSL) |
Arrival
| Time | 2026-04-21 05:01 |
|---|---|
| Airport | Presidente Juscelino Kubitschek International Airport (SBBR) |
| Time | Latitude | Longitude | Altitude | Speed | Heading |
|---|---|---|---|---|---|
| 2026-04-21 02:30 | -2.58432 | -44.23606 | 182 ft | 0 kts | 339° |
| 2026-04-21 02:38 | -2.58441 | -44.23602 | 182 ft | 2 kts | 339° |
| 2026-04-21 02:38 | -2.58455 | -44.23597 | 182 ft | 2 kts | 339° |
| 2026-04-21 02:39 | -2.58469 | -44.23592 | 182 ft | 2 kts | 342° |
| 2026-04-21 02:39 | -2.58483 | -44.23592 | 182 ft | 2 kts | 24° |
| 2026-04-21 02:39 | -2.58495 | -44.23602 | 182 ft | 2 kts | 58° |
| 2026-04-21 02:39 | -2.58498 | -44.23608 | 182 ft | 1 kts | 76° |
| 2026-04-21 02:40 | -2.58500 | -44.23613 | 182 ft | 0 kts | 71° |
| 2026-04-21 02:42 | -2.58499 | -44.23613 | 182 ft | 0 kts | 71° |
| 2026-04-21 02:42 | -2.58491 | -44.23587 | 182 ft | 6 kts | 71° |
| 2026-04-21 02:43 | -2.58468 | -44.23523 | 182 ft | 11 kts | 69° |
| 2026-04-21 02:43 | -2.58453 | -44.23456 | 182 ft | 9 kts | 103° |
| 2026-04-21 02:43 | -2.58486 | -44.23405 | 182 ft | 9 kts | 152° |
| 2026-04-21 02:43 | -2.58552 | -44.23415 | 182 ft | 11 kts | 215° |
| 2026-04-21 02:44 | -2.58629 | -44.23474 | 182 ft | 16 kts | 219° |
| 2026-04-21 02:44 | -2.58728 | -44.23553 | 182 ft | 21 kts | 219° |
| 2026-04-21 02:44 | -2.58891 | -44.23686 | 182 ft | 38 kts | 218° |
| 2026-04-21 02:44 | -2.59113 | -44.23865 | 182 ft | 37 kts | 219° |
| 2026-04-21 02:45 | -2.59310 | -44.24023 | 182 ft | 34 kts | 219° |
| 2026-04-21 02:45 | -2.59490 | -44.24171 | 182 ft | 32 kts | 218° |
| 2026-04-21 02:45 | -2.59638 | -44.24308 | 182 ft | 23 kts | 250° |
| 2026-04-21 02:45 | -2.59681 | -44.24328 | 182 ft | 5 kts | 90° |
| 2026-04-21 02:46 | -2.59666 | -44.24308 | 182 ft | 0 kts | 37° |
| 2026-04-21 02:46 | -2.59617 | -44.24270 | 182 ft | 37 kts | 39° |
| 2026-04-21 02:46 | -2.59223 | -44.23952 | 182 ft | 106 kts | 38° |
| 2026-04-21 02:47 | -2.58477 | -44.23351 | 183 ft | 163 kts | 38° |
| 2026-04-21 02:47 | -2.57505 | -44.22568 | 392 ft | 189 kts | 39° |
| 2026-04-21 02:47 | -2.56491 | -44.21730 | 1063 ft | 191 kts | 40° |
| 2026-04-21 02:47 | -2.55484 | -44.20915 | 1976 ft | 181 kts | 40° |
| 2026-04-21 02:48 | -2.54510 | -44.20145 | 2540 ft | 186 kts | 40° |
| 2026-04-21 02:48 | -2.53520 | -44.19217 | 2903 ft | 201 kts | 57° |
| 2026-04-21 02:48 | -2.53112 | -44.17862 | 3237 ft | 217 kts | 90° |
| 2026-04-21 02:48 | -2.53556 | -44.16344 | 3514 ft | 241 kts | 124° |
| 2026-04-21 02:49 | -2.54904 | -44.15282 | 3893 ft | 262 kts | 159° |
| 2026-04-21 02:49 | -2.56756 | -44.14975 | 4566 ft | 270 kts | 172° |
| 2026-04-21 02:49 | -2.58609 | -44.14748 | 5354 ft | 271 kts | 170° |
| 2026-04-21 02:49 | -2.60501 | -44.14487 | 6127 ft | 273 kts | 169° |
| 2026-04-21 02:50 | -2.62384 | -44.14217 | 6858 ft | 275 kts | 169° |
| 2026-04-21 02:50 | -2.64269 | -44.13944 | 7552 ft | 278 kts | 169° |
| 2026-04-21 02:50 | -2.66219 | -44.13660 | 8225 ft | 282 kts | 169° |
| 2026-04-21 02:50 | -2.68156 | -44.13377 | 8866 ft | 285 kts | 169° |
| 2026-04-21 02:51 | -2.70143 | -44.13088 | 9502 ft | 288 kts | 169° |
| 2026-04-21 02:51 | -2.72132 | -44.12798 | 10000 ft | 286 kts | 169° |
| 2026-04-21 02:51 | -2.74091 | -44.12513 | 10082 ft | 279 kts | 169° |
| 2026-04-21 02:51 | -2.76000 | -44.12235 | 9791 ft | 276 kts | 169° |
| 2026-04-21 02:52 | -2.77900 | -44.11957 | 9403 ft | 276 kts | 169° |
| 2026-04-21 02:52 | -2.79830 | -44.11676 | 9045 ft | 274 kts | 169° |
| 2026-04-21 02:52 | -2.81707 | -44.11482 | 8926 ft | 275 kts | 180° |
| 2026-04-21 02:52 | -2.83590 | -44.11905 | 8925 ft | 281 kts | 201° |
| 2026-04-21 02:53 | -2.85224 | -44.13023 | 8923 ft | 286 kts | 224° |
| 2026-04-21 02:53 | -2.86510 | -44.14576 | 8920 ft | 287 kts | 228° |
| 2026-04-21 02:53 | -2.87942 | -44.15952 | 8909 ft | 283 kts | 214° |
| 2026-04-21 02:53 | -2.89545 | -44.17089 | 8920 ft | 284 kts | 212° |
| 2026-04-21 02:54 | -2.91204 | -44.18197 | 8916 ft | 284 kts | 210° |
| 2026-04-21 02:54 | -2.92825 | -44.19256 | 8901 ft | 264 kts | 210° |
| 2026-04-21 02:54 | -2.94358 | -44.20245 | 8911 ft | 262 kts | 210° |
| 2026-04-21 02:54 | -2.95915 | -44.21242 | 8971 ft | 269 kts | 210° |
| 2026-04-21 02:55 | -2.97556 | -44.22287 | 9249 ft | 286 kts | 210° |
| 2026-04-21 02:55 | -2.99266 | -44.23376 | 9627 ft | 299 kts | 210° |
| 2026-04-21 02:55 | -3.01055 | -44.24519 | 10200 ft | 303 kts | 210° |
| 2026-04-21 02:55 | -3.02875 | -44.25681 | 10536 ft | 317 kts | 210° |
| 2026-04-21 02:56 | -3.04788 | -44.26899 | 10823 ft | 331 kts | 211° |
| 2026-04-21 02:56 | -3.08735 | -44.29424 | 11851 ft | 341 kts | 211° |
| 2026-04-21 02:56 | -3.10745 | -44.30708 | 12383 ft | 344 kts | 211° |
| 2026-04-21 02:57 | -3.12766 | -44.32000 | 12904 ft | 347 kts | 211° |
| 2026-04-21 02:57 | -3.14831 | -44.33320 | 13417 ft | 350 kts | 211° |
| 2026-04-21 02:57 | -3.16906 | -44.34644 | 13913 ft | 353 kts | 211° |
| 2026-04-21 02:57 | -3.18996 | -44.35979 | 14403 ft | 356 kts | 211° |
| 2026-04-21 02:58 | -3.21081 | -44.37311 | 14875 ft | 359 kts | 211° |
| 2026-04-21 02:58 | -3.23224 | -44.38681 | 15342 ft | 362 kts | 211° |
| 2026-04-21 02:58 | -3.25339 | -44.40033 | 15774 ft | 365 kts | 211° |
| 2026-04-21 02:58 | -3.27501 | -44.41415 | 16214 ft | 368 kts | 211° |
| 2026-04-21 02:59 | -3.29678 | -44.42791 | 16656 ft | 370 kts | 209° |
| 2026-04-21 02:59 | -3.31977 | -44.43976 | 17064 ft | 372 kts | 202° |
| 2026-04-21 02:59 | -3.34409 | -44.44870 | 17448 ft | 374 kts | 195° |
| 2026-04-21 02:59 | -3.36946 | -44.45594 | 17871 ft | 375 kts | 193° |
| 2026-04-21 03:00 | -3.39463 | -44.46274 | 18297 ft | 377 kts | 193° |
| 2026-04-21 03:00 | -3.42022 | -44.46966 | 18716 ft | 378 kts | 193° |
| 2026-04-21 03:00 | -3.44551 | -44.47652 | 19127 ft | 379 kts | 194° |
| 2026-04-21 03:00 | -3.47135 | -44.48359 | 19526 ft | 380 kts | 194° |
| 2026-04-21 03:01 | -3.49677 | -44.49060 | 19902 ft | 382 kts | 194° |
| 2026-04-21 03:01 | -3.52269 | -44.49775 | 20276 ft | 384 kts | 194° |
| 2026-04-21 03:01 | -3.54839 | -44.50484 | 20646 ft | 385 kts | 194° |
| 2026-04-21 03:01 | -3.57435 | -44.51203 | 21014 ft | 386 kts | 194° |
| 2026-04-21 03:02 | -3.60034 | -44.51923 | 21359 ft | 388 kts | 194° |
| 2026-04-21 03:02 | -3.62667 | -44.52652 | 21696 ft | 389 kts | 194° |
| 2026-04-21 03:02 | -3.65284 | -44.53377 | 22038 ft | 391 kts | 194° |
| 2026-04-21 03:02 | -3.67895 | -44.54103 | 22398 ft | 391 kts | 194° |
| 2026-04-21 03:03 | -3.70532 | -44.54836 | 22754 ft | 392 kts | 194° |
| 2026-04-21 03:03 | -3.73174 | -44.55570 | 23084 ft | 393 kts | 194° |
| 2026-04-21 03:03 | -3.75855 | -44.56317 | 23415 ft | 395 kts | 194° |
| 2026-04-21 03:03 | -3.78497 | -44.57053 | 23731 ft | 396 kts | 194° |
| 2026-04-21 03:04 | -3.81183 | -44.57800 | 24048 ft | 398 kts | 194° |
| 2026-04-21 03:04 | -3.83869 | -44.58546 | 24343 ft | 400 kts | 194° |
| 2026-04-21 03:04 | -3.86534 | -44.59287 | 24638 ft | 402 kts | 194° |
| 2026-04-21 03:04 | -3.89268 | -44.60049 | 24951 ft | 403 kts | 194° |
| 2026-04-21 03:05 | -3.91991 | -44.60799 | 25246 ft | 405 kts | 194° |
| 2026-04-21 03:05 | -3.94708 | -44.61498 | 25522 ft | 407 kts | 193° |
| 2026-04-21 03:05 | -3.97475 | -44.62189 | 25810 ft | 408 kts | 193° |
| 2026-04-21 03:05 | -4.00262 | -44.62882 | 26096 ft | 410 kts | 193° |
| 2026-04-21 03:06 | -4.03054 | -44.63580 | 26374 ft | 411 kts | 193° |
| 2026-04-21 03:06 | -4.05825 | -44.64275 | 26637 ft | 413 kts | 193° |
| 2026-04-21 03:06 | -4.08664 | -44.64988 | 26893 ft | 415 kts | 193° |
| 2026-04-21 03:06 | -4.11465 | -44.65693 | 27143 ft | 417 kts | 193° |
| 2026-04-21 03:07 | -4.14198 | -44.66382 | 27378 ft | 419 kts | 193° |
| 2026-04-21 03:07 | -4.17050 | -44.67100 | 27625 ft | 421 kts | 193° |
| 2026-04-21 03:07 | -4.19909 | -44.67820 | 27874 ft | 423 kts | 193° |
| 2026-04-21 03:07 | -4.22773 | -44.68542 | 28129 ft | 424 kts | 193° |
| 2026-04-21 03:08 | -4.25685 | -44.69276 | 28390 ft | 425 kts | 192° |
| 2026-04-21 03:08 | -4.28539 | -44.69995 | 28642 ft | 427 kts | 193° |
| 2026-04-21 03:08 | -4.31459 | -44.70767 | 28898 ft | 429 kts | 194° |
| 2026-04-21 03:08 | -4.34344 | -44.71579 | 29150 ft | 431 kts | 194° |
| 2026-04-21 03:09 | -4.37228 | -44.72400 | 29389 ft | 433 kts | 194° |
| 2026-04-21 03:09 | -4.40004 | -44.73190 | 29623 ft | 434 kts | 194° |
| 2026-04-21 03:09 | -4.42909 | -44.74015 | 29861 ft | 436 kts | 194° |
| 2026-04-21 03:09 | -4.45879 | -44.74857 | 30096 ft | 438 kts | 194° |
| 2026-04-21 03:10 | -4.48813 | -44.75687 | 30321 ft | 441 kts | 194° |
| 2026-04-21 03:10 | -4.51769 | -44.76521 | 30550 ft | 443 kts | 194° |
| 2026-04-21 03:10 | -4.54748 | -44.77360 | 30785 ft | 445 kts | 194° |
| 2026-04-21 03:10 | -4.57759 | -44.78209 | 31020 ft | 446 kts | 194° |
| 2026-04-21 03:11 | -4.60757 | -44.79054 | 31242 ft | 448 kts | 194° |
| 2026-04-21 03:11 | -4.63775 | -44.79905 | 31463 ft | 450 kts | 194° |
| 2026-04-21 03:11 | -4.66817 | -44.80763 | 31687 ft | 452 kts | 194° |
| 2026-04-21 03:11 | -4.69840 | -44.81615 | 31908 ft | 454 kts | 194° |
| 2026-04-21 03:12 | -4.72923 | -44.82485 | 32130 ft | 456 kts | 194° |
| 2026-04-21 03:12 | -4.76005 | -44.83355 | 32353 ft | 458 kts | 194° |
| 2026-04-21 03:12 | -4.79055 | -44.84215 | 32636 ft | 458 kts | 194° |
| 2026-04-21 03:12 | -4.82138 | -44.85086 | 32985 ft | 457 kts | 194° |
| 2026-04-21 03:13 | -4.85233 | -44.85960 | 33350 ft | 456 kts | 194° |
| 2026-04-21 03:13 | -4.88261 | -44.86815 | 33718 ft | 454 kts | 194° |
| 2026-04-21 03:13 | -4.91332 | -44.87681 | 34080 ft | 453 kts | 194° |
| 2026-04-21 03:13 | -4.94204 | -44.88491 | 34371 ft | 452 kts | 194° |
| 2026-04-21 03:14 | -4.97250 | -44.89349 | 34617 ft | 453 kts | 194° |
| 2026-04-21 03:14 | -5.00294 | -44.90208 | 34841 ft | 454 kts | 194° |
| 2026-04-21 03:14 | -5.03359 | -44.91073 | 35072 ft | 455 kts | 194° |
| 2026-04-21 03:14 | -5.06385 | -44.91927 | 35304 ft | 456 kts | 194° |
| 2026-04-21 03:15 | -5.09473 | -44.92799 | 35526 ft | 456 kts | 194° |
| 2026-04-21 03:15 | -5.12582 | -44.93677 | 35728 ft | 457 kts | 194° |
| 2026-04-21 03:15 | -5.15660 | -44.94546 | 35905 ft | 458 kts | 194° |
| 2026-04-21 03:15 | -5.18762 | -44.95423 | 35917 ft | 459 kts | 194° |
| 2026-04-21 03:16 | -5.24908 | -44.97159 | 35922 ft | 459 kts | 195° |
| 2026-04-21 03:16 | -5.31100 | -44.98909 | 35932 ft | 459 kts | 194° |
| 2026-04-21 03:17 | -5.37100 | -45.00605 | 35942 ft | 459 kts | 195° |
| 2026-04-21 03:17 | -5.43262 | -45.02346 | 35947 ft | 459 kts | 194° |
| 2026-04-21 03:18 | -5.49426 | -45.04087 | 35948 ft | 458 kts | 195° |
| 2026-04-21 03:18 | -5.55626 | -45.05841 | 35950 ft | 458 kts | 195° |
| 2026-04-21 03:19 | -5.61766 | -45.07579 | 35952 ft | 459 kts | 195° |
| 2026-04-21 03:19 | -5.67952 | -45.09329 | 35952 ft | 458 kts | 195° |
| 2026-04-21 03:20 | -5.74093 | -45.11067 | 35954 ft | 458 kts | 195° |
| 2026-04-21 03:20 | -5.80269 | -45.12814 | 35956 ft | 458 kts | 195° |
| 2026-04-21 03:21 | -5.86446 | -45.14563 | 35958 ft | 458 kts | 195° |
| 2026-04-21 03:21 | -5.92587 | -45.16302 | 35959 ft | 458 kts | 195° |
| 2026-04-21 03:22 | -5.98616 | -45.17983 | 35961 ft | 458 kts | 195° |
| 2026-04-21 03:22 | -6.04775 | -45.19693 | 35959 ft | 458 kts | 194° |
| 2026-04-21 03:23 | -6.10937 | -45.21406 | 35955 ft | 458 kts | 195° |
| 2026-04-21 03:23 | -6.17105 | -45.23123 | 35956 ft | 457 kts | 195° |
| 2026-04-21 03:24 | -6.23247 | -45.24831 | 35960 ft | 456 kts | 195° |
| 2026-04-21 03:24 | -6.29423 | -45.26543 | 35963 ft | 457 kts | 195° |
| 2026-04-21 03:25 | -6.35573 | -45.28248 | 35965 ft | 458 kts | 195° |
| 2026-04-21 03:25 | -6.41730 | -45.29955 | 35966 ft | 457 kts | 195° |
| 2026-04-21 03:26 | -6.47692 | -45.31609 | 35967 ft | 457 kts | 195° |
| 2026-04-21 03:26 | -6.53862 | -45.33323 | 35970 ft | 456 kts | 195° |
| 2026-04-21 03:27 | -6.59970 | -45.35019 | 35973 ft | 456 kts | 195° |
| 2026-04-21 03:27 | -6.66097 | -45.36720 | 35976 ft | 455 kts | 195° |
| 2026-04-21 03:28 | -6.72099 | -45.38386 | 35980 ft | 455 kts | 195° |
| 2026-04-21 03:28 | -6.78232 | -45.40090 | 35981 ft | 455 kts | 195° |
| 2026-04-21 03:29 | -6.84365 | -45.41794 | 35978 ft | 456 kts | 195° |
| 2026-04-21 03:29 | -6.90486 | -45.43495 | 35973 ft | 456 kts | 195° |
| 2026-04-21 03:30 | -6.96613 | -45.45199 | 35970 ft | 455 kts | 195° |
| 2026-04-21 03:30 | -7.02734 | -45.46902 | 35965 ft | 454 kts | 195° |
| 2026-04-21 03:31 | -7.08837 | -45.48599 | 35960 ft | 454 kts | 195° |
| 2026-04-21 03:31 | -7.14975 | -45.50308 | 35957 ft | 454 kts | 195° |
| 2026-04-21 03:32 | -7.21085 | -45.52010 | 35956 ft | 454 kts | 195° |
| 2026-04-21 03:32 | -7.27034 | -45.53666 | 35956 ft | 454 kts | 195° |
| 2026-04-21 03:33 | -7.33127 | -45.55361 | 35959 ft | 453 kts | 195° |
| 2026-04-21 03:33 | -7.39088 | -45.57022 | 35963 ft | 453 kts | 195° |
| 2026-04-21 03:34 | -7.45154 | -45.58712 | 35968 ft | 452 kts | 195° |
| 2026-04-21 03:34 | -7.51220 | -45.60403 | 35971 ft | 452 kts | 195° |
| 2026-04-21 03:35 | -7.57316 | -45.62103 | 35973 ft | 452 kts | 195° |
| 2026-04-21 03:35 | -7.63395 | -45.63799 | 35975 ft | 452 kts | 195° |
| 2026-04-21 03:36 | -7.69471 | -45.65494 | 35976 ft | 451 kts | 195° |
| 2026-04-21 03:36 | -7.75561 | -45.67193 | 35981 ft | 451 kts | 195° |
| 2026-04-21 03:37 | -7.81615 | -45.68882 | 35983 ft | 451 kts | 195° |
| 2026-04-21 03:37 | -7.87659 | -45.70571 | 35984 ft | 451 kts | 195° |
| 2026-04-21 03:38 | -7.93667 | -45.72250 | 35985 ft | 451 kts | 195° |
| 2026-04-21 03:38 | -7.99714 | -45.73939 | 35983 ft | 451 kts | 195° |
| 2026-04-21 03:39 | -8.05776 | -45.75633 | 35981 ft | 451 kts | 195° |
| 2026-04-21 03:39 | -8.11879 | -45.77339 | 35982 ft | 451 kts | 195° |
| 2026-04-21 03:40 | -8.17846 | -45.79021 | 35979 ft | 450 kts | 195° |
| 2026-04-21 03:40 | -8.23891 | -45.80750 | 35980 ft | 450 kts | 195° |
| 2026-04-21 03:41 | -8.29906 | -45.82469 | 35977 ft | 450 kts | 195° |
| 2026-04-21 03:41 | -8.35962 | -45.84200 | 35978 ft | 449 kts | 195° |
| 2026-04-21 03:42 | -8.41991 | -45.85922 | 35976 ft | 449 kts | 195° |
| 2026-04-21 03:42 | -8.48021 | -45.87645 | 35972 ft | 448 kts | 195° |
| 2026-04-21 03:43 | -8.54009 | -45.89356 | 35968 ft | 448 kts | 195° |
| 2026-04-21 03:43 | -8.60054 | -45.91085 | 35965 ft | 447 kts | 195° |
| 2026-04-21 03:44 | -8.66044 | -45.92799 | 35959 ft | 447 kts | 195° |
| 2026-04-21 03:44 | -8.72036 | -45.94514 | 35958 ft | 446 kts | 195° |
| 2026-04-21 03:45 | -8.78017 | -45.96226 | 35959 ft | 446 kts | 195° |
| 2026-04-21 03:45 | -8.83881 | -45.97905 | 35957 ft | 446 kts | 195° |
| 2026-04-21 03:46 | -8.89833 | -45.99609 | 35954 ft | 445 kts | 195° |
| 2026-04-21 03:46 | -8.95826 | -46.01326 | 35952 ft | 445 kts | 196° |
| 2026-04-21 03:47 | -9.01809 | -46.03040 | 35951 ft | 446 kts | 196° |
| 2026-04-21 03:47 | -9.07797 | -46.04758 | 35955 ft | 446 kts | 196° |
| 2026-04-21 03:48 | -9.13687 | -46.06445 | 35955 ft | 444 kts | 196° |
| 2026-04-21 03:48 | -9.19649 | -46.08143 | 35964 ft | 444 kts | 196° |
| 2026-04-21 03:49 | -9.25586 | -46.09835 | 35968 ft | 443 kts | 196° |
| 2026-04-21 03:49 | -9.31566 | -46.11540 | 35978 ft | 443 kts | 196° |
| 2026-04-21 03:50 | -9.37493 | -46.13231 | 35983 ft | 443 kts | 196° |
| 2026-04-21 03:50 | -9.43452 | -46.14931 | 35986 ft | 443 kts | 196° |
| 2026-04-21 03:51 | -9.49393 | -46.16627 | 35995 ft | 444 kts | 196° |
| 2026-04-21 03:51 | -9.55359 | -46.18332 | 35996 ft | 443 kts | 196° |
| 2026-04-21 03:52 | -9.61269 | -46.20020 | 35995 ft | 442 kts | 196° |
| 2026-04-21 03:52 | -9.67243 | -46.21727 | 35993 ft | 442 kts | 196° |
| 2026-04-21 03:53 | -9.73138 | -46.23412 | 35991 ft | 442 kts | 196° |
| 2026-04-21 03:53 | -9.79095 | -46.25117 | 35992 ft | 441 kts | 196° |
| 2026-04-21 03:54 | -9.84993 | -46.26804 | 35997 ft | 441 kts | 196° |
| 2026-04-21 03:54 | -9.90909 | -46.28498 | 36005 ft | 441 kts | 196° |
| 2026-04-21 03:55 | -9.96831 | -46.30193 | 36013 ft | 441 kts | 196° |
| 2026-04-21 03:55 | -10.02786 | -46.31899 | 36020 ft | 441 kts | 196° |
| 2026-04-21 03:56 | -10.08677 | -46.33587 | 36018 ft | 441 kts | 196° |
| 2026-04-21 03:56 | -10.14649 | -46.35299 | 36016 ft | 440 kts | 197° |
| 2026-04-21 03:57 | -10.20543 | -46.37036 | 36015 ft | 439 kts | 198° |
| 2026-04-21 03:57 | -10.26381 | -46.38877 | 36016 ft | 438 kts | 198° |
| 2026-04-21 03:58 | -10.32184 | -46.40709 | 36021 ft | 438 kts | 198° |
| 2026-04-21 03:58 | -10.38029 | -46.42547 | 36018 ft | 438 kts | 198° |
| 2026-04-21 03:59 | -10.43882 | -46.44384 | 36020 ft | 438 kts | 198° |
| 2026-04-21 04:00 | -10.52637 | -46.47133 | 36024 ft | 437 kts | 198° |
| 2026-04-21 04:00 | -10.58447 | -46.48957 | 36023 ft | 437 kts | 198° |
| 2026-04-21 04:01 | -10.64267 | -46.50786 | 36018 ft | 436 kts | 198° |
| 2026-04-21 04:01 | -10.70103 | -46.52620 | 36017 ft | 436 kts | 198° |
| 2026-04-21 04:02 | -10.75886 | -46.54438 | 36012 ft | 436 kts | 198° |
| 2026-04-21 04:02 | -10.81677 | -46.56260 | 36015 ft | 436 kts | 198° |
| 2026-04-21 04:03 | -10.87501 | -46.58091 | 36024 ft | 435 kts | 198° |
| 2026-04-21 04:03 | -10.93287 | -46.59913 | 36030 ft | 435 kts | 198° |
| 2026-04-21 04:04 | -10.99071 | -46.61735 | 36041 ft | 435 kts | 198° |
| 2026-04-21 04:04 | -11.04708 | -46.63511 | 36050 ft | 434 kts | 198° |
| 2026-04-21 04:05 | -11.10544 | -46.65350 | 36048 ft | 434 kts | 198° |
| 2026-04-21 04:05 | -11.16385 | -46.67191 | 36047 ft | 434 kts | 198° |
| 2026-04-21 04:06 | -11.22159 | -46.69013 | 36045 ft | 433 kts | 198° |
| 2026-04-21 04:06 | -11.27881 | -46.70818 | 36045 ft | 432 kts | 198° |
| 2026-04-21 04:07 | -11.33637 | -46.72635 | 36037 ft | 432 kts | 198° |
| 2026-04-21 04:07 | -11.39405 | -46.74457 | 36033 ft | 431 kts | 198° |
| 2026-04-21 04:08 | -11.45167 | -46.76278 | 36023 ft | 431 kts | 198° |
| 2026-04-21 04:08 | -11.50876 | -46.78082 | 36016 ft | 431 kts | 198° |
| 2026-04-21 04:09 | -11.56630 | -46.79901 | 36010 ft | 431 kts | 198° |
| 2026-04-21 04:09 | -11.62357 | -46.81713 | 36007 ft | 430 kts | 198° |
| 2026-04-21 04:10 | -11.68074 | -46.83523 | 35998 ft | 430 kts | 198° |
| 2026-04-21 04:10 | -11.73811 | -46.85339 | 35993 ft | 429 kts | 198° |
| 2026-04-21 04:11 | -11.79521 | -46.87147 | 35988 ft | 428 kts | 198° |
| 2026-04-21 04:11 | -11.85140 | -46.88927 | 35990 ft | 427 kts | 198° |
| 2026-04-21 04:12 | -11.90838 | -46.90734 | 35994 ft | 427 kts | 198° |
| 2026-04-21 04:12 | -11.96567 | -46.92343 | 35999 ft | 427 kts | 195° |
| 2026-04-21 04:13 | -12.02157 | -46.93783 | 35995 ft | 426 kts | 195° |
| 2026-04-21 04:13 | -12.07926 | -46.95267 | 35994 ft | 426 kts | 195° |
| 2026-04-21 04:14 | -12.13714 | -46.96758 | 35991 ft | 427 kts | 195° |
| 2026-04-21 04:14 | -12.19517 | -46.98254 | 35984 ft | 426 kts | 195° |
| 2026-04-21 04:15 | -12.25239 | -46.99727 | 35977 ft | 426 kts | 195° |
| 2026-04-21 04:15 | -12.31034 | -47.01222 | 35979 ft | 425 kts | 195° |
| 2026-04-21 04:16 | -12.36745 | -47.02697 | 35979 ft | 425 kts | 195° |
| 2026-04-21 04:16 | -12.42483 | -47.04178 | 35979 ft | 424 kts | 195° |
| 2026-04-21 04:17 | -12.48243 | -47.05667 | 35980 ft | 424 kts | 195° |
| 2026-04-21 04:17 | -12.53975 | -47.07148 | 35982 ft | 423 kts | 195° |
| 2026-04-21 04:18 | -12.59689 | -47.08625 | 35989 ft | 423 kts | 195° |
| 2026-04-21 04:18 | -12.65406 | -47.10105 | 35990 ft | 423 kts | 195° |
| 2026-04-21 04:19 | -12.71114 | -47.11580 | 35994 ft | 423 kts | 195° |
| 2026-04-21 04:19 | -12.76820 | -47.13057 | 35999 ft | 423 kts | 195° |
| 2026-04-21 04:20 | -12.82562 | -47.14544 | 36003 ft | 422 kts | 195° |
| 2026-04-21 04:20 | -12.88269 | -47.16023 | 36005 ft | 422 kts | 195° |
| 2026-04-21 04:21 | -12.93976 | -47.17504 | 36006 ft | 422 kts | 195° |
| 2026-04-21 04:21 | -12.99529 | -47.18946 | 36005 ft | 422 kts | 195° |
| 2026-04-21 04:22 | -13.05081 | -47.20387 | 36004 ft | 422 kts | 195° |
| 2026-04-21 04:22 | -13.10806 | -47.21872 | 36004 ft | 423 kts | 194° |
| 2026-04-21 04:23 | -13.16517 | -47.23354 | 36003 ft | 423 kts | 194° |
| 2026-04-21 04:23 | -13.22248 | -47.24841 | 36002 ft | 423 kts | 194° |
| 2026-04-21 04:24 | -13.27948 | -47.26323 | 36002 ft | 423 kts | 194° |
| 2026-04-21 04:24 | -13.33696 | -47.27816 | 36006 ft | 423 kts | 194° |
| 2026-04-21 04:25 | -13.39391 | -47.29298 | 36008 ft | 423 kts | 194° |
| 2026-04-21 04:25 | -13.45136 | -47.30759 | 36013 ft | 423 kts | 192° |
| 2026-04-21 04:26 | -13.50988 | -47.31707 | 36017 ft | 424 kts | 186° |
| 2026-04-21 04:26 | -13.56856 | -47.31958 | 36028 ft | 424 kts | 180° |
| 2026-04-21 04:27 | -13.62775 | -47.31509 | 36038 ft | 426 kts | 174° |
| 2026-04-21 04:27 | -13.68655 | -47.30655 | 36049 ft | 425 kts | 173° |
| 2026-04-21 04:28 | -13.74530 | -47.29778 | 36066 ft | 425 kts | 173° |
| 2026-04-21 04:28 | -13.80253 | -47.28921 | 36079 ft | 425 kts | 173° |
| 2026-04-21 04:29 | -13.86079 | -47.28050 | 36089 ft | 425 kts | 173° |
| 2026-04-21 04:29 | -13.91947 | -47.27174 | 36100 ft | 425 kts | 173° |
| 2026-04-21 04:30 | -13.97854 | -47.26292 | 36108 ft | 426 kts | 173° |
| 2026-04-21 04:30 | -14.03741 | -47.25412 | 36111 ft | 425 kts | 173° |
| 2026-04-21 04:31 | -14.09584 | -47.24537 | 36097 ft | 426 kts | 173° |
| 2026-04-21 04:31 | -14.15537 | -47.23645 | 36077 ft | 426 kts | 173° |
| 2026-04-21 04:32 | -14.21385 | -47.22769 | 36058 ft | 426 kts | 173° |
| 2026-04-21 04:32 | -14.27307 | -47.21881 | 36041 ft | 427 kts | 173° |
| 2026-04-21 04:33 | -14.33204 | -47.20997 | 36035 ft | 426 kts | 173° |
| 2026-04-21 04:33 | -14.39082 | -47.20115 | 36033 ft | 426 kts | 173° |
| 2026-04-21 04:34 | -14.44963 | -47.19232 | 36032 ft | 427 kts | 173° |
| 2026-04-21 04:34 | -14.50865 | -47.18344 | 36031 ft | 427 kts | 173° |
| 2026-04-21 04:35 | -14.56760 | -47.17458 | 36028 ft | 427 kts | 173° |
| 2026-04-21 04:35 | -14.62656 | -47.16572 | 36025 ft | 428 kts | 173° |
| 2026-04-21 04:36 | -14.68471 | -47.15698 | 36022 ft | 429 kts | 172° |
| 2026-04-21 04:36 | -14.74410 | -47.14801 | 36022 ft | 430 kts | 172° |
| 2026-04-21 04:37 | -14.80320 | -47.13909 | 36027 ft | 429 kts | 173° |
| 2026-04-21 04:37 | -14.86231 | -47.13019 | 35689 ft | 429 kts | 172° |
| 2026-04-21 04:37 | -14.89196 | -47.12572 | 35394 ft | 427 kts | 172° |
| 2026-04-21 04:38 | -14.92129 | -47.12128 | 35101 ft | 424 kts | 172° |
| 2026-04-21 04:38 | -14.94903 | -47.11708 | 34822 ft | 422 kts | 172° |
| 2026-04-21 04:38 | -14.97817 | -47.11268 | 34529 ft | 422 kts | 172° |
| 2026-04-21 04:38 | -15.00747 | -47.10825 | 34202 ft | 423 kts | 172° |
| 2026-04-21 04:39 | -15.03515 | -47.10405 | 33747 ft | 425 kts | 172° |
| 2026-04-21 04:39 | -15.06420 | -47.09964 | 33154 ft | 426 kts | 173° |
| 2026-04-21 04:39 | -15.09197 | -47.09544 | 32521 ft | 427 kts | 173° |
| 2026-04-21 04:39 | -15.12172 | -47.09228 | 31890 ft | 425 kts | 180° |
| 2026-04-21 04:40 | -15.15143 | -47.09459 | 31437 ft | 420 kts | 189° |
| 2026-04-21 04:40 | -15.17797 | -47.10146 | 30999 ft | 417 kts | 199° |
| 2026-04-21 04:40 | -15.20440 | -47.11342 | 30545 ft | 414 kts | 208° |
| 2026-04-21 04:40 | -15.22838 | -47.12979 | 30108 ft | 412 kts | 217° |
| 2026-04-21 04:41 | -15.24904 | -47.14980 | 29658 ft | 410 kts | 226° |
| 2026-04-21 04:41 | -15.26764 | -47.17202 | 29194 ft | 407 kts | 228° |
| 2026-04-21 04:41 | -15.28584 | -47.19443 | 28732 ft | 404 kts | 229° |
| 2026-04-21 04:41 | -15.30383 | -47.21670 | 28293 ft | 400 kts | 229° |
| 2026-04-21 04:42 | -15.32170 | -47.23882 | 27846 ft | 397 kts | 228° |
| 2026-04-21 04:42 | -15.33831 | -47.25935 | 27422 ft | 395 kts | 229° |
| 2026-04-21 04:42 | -15.35581 | -47.28097 | 26972 ft | 392 kts | 228° |
| 2026-04-21 04:42 | -15.37332 | -47.30257 | 26520 ft | 389 kts | 228° |
| 2026-04-21 04:43 | -15.39066 | -47.32397 | 26071 ft | 387 kts | 228° |
| 2026-04-21 04:43 | -15.40788 | -47.34522 | 25617 ft | 385 kts | 228° |
| 2026-04-21 04:43 | -15.42488 | -47.36622 | 25169 ft | 382 kts | 228° |
| 2026-04-21 04:43 | -15.44192 | -47.38726 | 24714 ft | 380 kts | 228° |
| 2026-04-21 04:44 | -15.45783 | -47.40691 | 24284 ft | 379 kts | 228° |
| 2026-04-21 04:44 | -15.47505 | -47.42770 | 23820 ft | 376 kts | 226° |
| 2026-04-21 04:44 | -15.49237 | -47.44572 | 23391 ft | 374 kts | 221° |
| 2026-04-21 04:44 | -15.51213 | -47.46301 | 22937 ft | 372 kts | 216° |
| 2026-04-21 04:45 | -15.53197 | -47.47819 | 22503 ft | 370 kts | 215° |
| 2026-04-21 04:45 | -15.55266 | -47.49365 | 22037 ft | 368 kts | 214° |
| 2026-04-21 04:45 | -15.57369 | -47.50929 | 21573 ft | 367 kts | 214° |
| 2026-04-21 04:45 | -15.59421 | -47.52457 | 21123 ft | 365 kts | 215° |
| 2026-04-21 04:46 | -15.61463 | -47.53981 | 20671 ft | 363 kts | 215° |
| 2026-04-21 04:46 | -15.63527 | -47.55523 | 20216 ft | 362 kts | 215° |
| 2026-04-21 04:46 | -15.65555 | -47.57040 | 19770 ft | 360 kts | 215° |
| 2026-04-21 04:46 | -15.67580 | -47.58556 | 19325 ft | 359 kts | 215° |
| 2026-04-21 04:47 | -15.69619 | -47.60082 | 18868 ft | 358 kts | 215° |
| 2026-04-21 04:47 | -15.71643 | -47.61597 | 18419 ft | 357 kts | 215° |
| 2026-04-21 04:47 | -15.73586 | -47.63182 | 17940 ft | 357 kts | 225° |
| 2026-04-21 04:47 | -15.74855 | -47.65203 | 17500 ft | 357 kts | 248° |
| 2026-04-21 04:48 | -15.75356 | -47.67722 | 17077 ft | 357 kts | 265° |
| 2026-04-21 04:48 | -15.75498 | -47.70312 | 16642 ft | 356 kts | 266° |
| 2026-04-21 04:48 | -15.75640 | -47.72910 | 16200 ft | 355 kts | 266° |
| 2026-04-21 04:48 | -15.75787 | -47.75451 | 15760 ft | 354 kts | 266° |
| 2026-04-21 04:49 | -15.75942 | -47.77984 | 15321 ft | 353 kts | 266° |
| 2026-04-21 04:49 | -15.76104 | -47.80550 | 14874 ft | 353 kts | 266° |
| 2026-04-21 04:49 | -15.76265 | -47.83062 | 14431 ft | 352 kts | 266° |
| 2026-04-21 04:49 | -15.76428 | -47.85587 | 14003 ft | 350 kts | 267° |
| 2026-04-21 04:50 | -15.76590 | -47.88081 | 13836 ft | 341 kts | 267° |
| 2026-04-21 04:50 | -15.76746 | -47.90497 | 13693 ft | 334 kts | 267° |
| 2026-04-21 04:50 | -15.76901 | -47.92906 | 13547 ft | 329 kts | 267° |
| 2026-04-21 04:50 | -15.77051 | -47.95239 | 13361 ft | 324 kts | 267° |
| 2026-04-21 04:51 | -15.77200 | -47.97546 | 13213 ft | 312 kts | 267° |
| 2026-04-21 04:51 | -15.77341 | -47.99747 | 13024 ft | 304 kts | 267° |
| 2026-04-21 04:51 | -15.77480 | -48.01929 | 12769 ft | 298 kts | 267° |
| 2026-04-21 04:51 | -15.77616 | -48.04050 | 12445 ft | 291 kts | 267° |
| 2026-04-21 04:52 | -15.77741 | -48.06031 | 12109 ft | 294 kts | 266° |
| 2026-04-21 04:52 | -15.77877 | -48.08157 | 11873 ft | 295 kts | 266° |
| 2026-04-21 04:52 | -15.78013 | -48.10269 | 11503 ft | 290 kts | 266° |
| 2026-04-21 04:52 | -15.78144 | -48.12326 | 10949 ft | 288 kts | 266° |
| 2026-04-21 04:53 | -15.78278 | -48.14423 | 10537 ft | 289 kts | 266° |
| 2026-04-21 04:53 | -15.78410 | -48.16491 | 10250 ft | 283 kts | 266° |
| 2026-04-21 04:53 | -15.78539 | -48.18503 | 9963 ft | 279 kts | 265° |
| 2026-04-21 04:53 | -15.78751 | -48.20499 | 9668 ft | 274 kts | 253° |
| 2026-04-21 04:54 | -15.79705 | -48.22109 | 9377 ft | 263 kts | 216° |
| 2026-04-21 04:54 | -15.81383 | -48.22873 | 9005 ft | 265 kts | 182° |
| 2026-04-21 04:54 | -15.83193 | -48.22688 | 8697 ft | 258 kts | 166° |
| 2026-04-21 04:54 | -15.84854 | -48.22070 | 8322 ft | 254 kts | 142° |
| 2026-04-21 04:55 | -15.85922 | -48.20658 | 8000 ft | 247 kts | 112° |
| 2026-04-21 04:55 | -15.86537 | -48.19002 | 7712 ft | 243 kts | 111° |
| 2026-04-21 04:55 | -15.87165 | -48.17395 | 7406 ft | 241 kts | 109° |
| 2026-04-21 04:55 | -15.87604 | -48.15717 | 7094 ft | 238 kts | 98° |
| 2026-04-21 04:56 | -15.87702 | -48.14026 | 6819 ft | 234 kts | 90° |
| 2026-04-21 04:56 | -15.87643 | -48.12459 | 6736 ft | 222 kts | 87° |
| 2026-04-21 04:56 | -15.87540 | -48.10892 | 6721 ft | 208 kts | 86° |
| 2026-04-21 04:56 | -15.87437 | -48.09428 | 6505 ft | 199 kts | 86° |
| 2026-04-21 04:57 | -15.87338 | -48.08008 | 6230 ft | 193 kts | 86° |
| 2026-04-21 04:57 | -15.87247 | -48.06641 | 5969 ft | 183 kts | 86° |
| 2026-04-21 04:57 | -15.87164 | -48.05378 | 5738 ft | 166 kts | 86° |
| 2026-04-21 04:57 | -15.87086 | -48.04189 | 5515 ft | 162 kts | 86° |
| 2026-04-21 04:58 | -15.87011 | -48.03028 | 5317 ft | 161 kts | 86° |
| 2026-04-21 04:58 | -15.86935 | -48.01855 | 5123 ft | 160 kts | 86° |
| 2026-04-21 04:58 | -15.86863 | -48.00756 | 4941 ft | 160 kts | 86° |
| 2026-04-21 04:58 | -15.86788 | -47.99607 | 4742 ft | 159 kts | 86° |
| 2026-04-21 04:59 | -15.86714 | -47.98460 | 4537 ft | 158 kts | 86° |
| 2026-04-21 04:59 | -15.86641 | -47.97324 | 4334 ft | 158 kts | 86° |
| 2026-04-21 04:59 | -15.86566 | -47.96183 | 4126 ft | 157 kts | 85° |
| 2026-04-21 04:59 | -15.86492 | -47.95038 | 3918 ft | 157 kts | 85° |
| 2026-04-21 05:00 | -15.86419 | -47.93911 | 3719 ft | 156 kts | 85° |
| 2026-04-21 05:00 | -15.86354 | -47.92840 | 3529 ft | 157 kts | 86° |
| 2026-04-21 05:00 | -15.86236 | -47.90949 | 3481 ft | 50 kts | 86° |
| 2026-04-21 05:01 | -15.86280 | -47.90813 | 3486 ft | 17 kts | 131° |
| 2026-04-21 05:01 | -15.86354 | -47.90725 | 3489 ft | 15 kts | 136° |
| 2026-04-21 05:01 | -15.86420 | -47.90767 | 3487 ft | 14 kts | 265° |
| 2026-04-21 05:01 | -15.86425 | -47.90873 | 3488 ft | 15 kts | 266° |
| 2026-04-21 05:02 | -15.86432 | -47.90998 | 3486 ft | 18 kts | 266° |
| 2026-04-21 05:02 | -15.86441 | -47.91146 | 3482 ft | 21 kts | 266° |
| 2026-04-21 05:02 | -15.86451 | -47.91309 | 3480 ft | 23 kts | 265° |
| 2026-04-21 05:02 | -15.86463 | -47.91486 | 3477 ft | 24 kts | 266° |
| 2026-04-21 05:03 | -15.86473 | -47.91655 | 3477 ft | 23 kts | 266° |
| 2026-04-21 05:03 | -15.86490 | -47.91783 | 3476 ft | 14 kts | 238° |
| 2026-04-21 05:03 | -15.86571 | -47.91813 | 3478 ft | 10 kts | 186° |
| 2026-04-21 05:03 | -15.86621 | -47.91838 | 3480 ft | 5 kts | 205° |
| 2026-04-21 05:04 | -15.86654 | -47.91846 | 3481 ft | 3 kts | 181° |
| 2026-04-21 05:04 | -15.86674 | -47.91846 | 3482 ft | 2 kts | 179° |
| 2026-04-21 05:04 | -15.86698 | -47.91846 | 3482 ft | 3 kts | 179° |
| 2026-04-21 05:04 | -15.86699 | -47.91845 | 3482 ft | 0 kts | 179° |